Vardehorn — LLAE — position and weather

sailwx.info

Track history (hours):
 
Tides and Currents Weather Stations Pressure Air Temp Water Temp Dewpoint Dewpoint Depression Visibility Wind Speed Wind Dir Waves Ship Positions

Vardehorn

Last reported at 2018-Feb-25 12:00 UTC. Time now 2018-Feb-25 12:12 UTC.
Position N 68°03' E 016°05'.

Length 112 m; draft 3.2 m.

Type: Passenger vessel. MMSI: 259650000.

Date/timePositionNaut miles runAvg speedWind from/ knotsBaromVisibWave heightAir tempDewpointWater temp
2018-Feb-25 12:00N 68°03' E 016°05'3 5.8
2018-Feb-25 11:30N 68°05' E 016°11'4 7.8
2018-Feb-25 11:00N 68°06' E 016°21'3 5.4
2018-Feb-25 10:30N 68°06' E 016°14'4 8.8
2018-Feb-25 10:00N 68°03' E 016°05'3 5.3
2018-Feb-25 09:28N 68°05' E 016°11'4 8.7
2018-Feb-25 09:00N 68°06' E 016°21'3 5.1
2018-Feb-25 08:30N 68°06' E 016°14'5 9.0
2018-Feb-25 08:00N 68°03' E 016°05'2 3.5
2018-Feb-25 07:30N 68°04' E 016°08'510.2
2018-Feb-25 07:00N 68°06' E 016°21'1 1.4
2018-Feb-25 06:30N 68°06' E 016°20'5 9.2
2018-Feb-25 06:00N 68°04' E 016°08'1 1.3
2018-Feb-25 05:30N 68°04' E 016°09'5 9.6
2018-Feb-25 05:00N 68°06' E 016°21'0 0.0
2018-Feb-25 04:30N 68°06' E 016°21'0 0.0
2018-Feb-25 04:00N 68°06' E 016°21'0 0.0
2018-Feb-25 03:30N 68°06' E 016°21'0 0.0
2018-Feb-25 03:00N 68°06' E 016°21'0 0.0
2018-Feb-25 02:30N 68°06' E 016°21'0 0.0
2018-Feb-25 02:00N 68°06' E 016°21'0 0.0
2018-Feb-25 01:30N 68°06' E 016°21'0 0.0
2018-Feb-25 01:00N 68°06' E 016°21'0 0.0
2018-Feb-25 00:30N 68°06' E 016°21'0 0.0
2018-Feb-25 00:00N 68°06' E 016°21'0 0.0
2018-Feb-24 23:30N 68°06' E 016°21'0 0.0
2018-Feb-24 23:00N 68°06' E 016°21'3 5.3
2018-Feb-24 22:30N 68°06' E 016°14'5 9.4
2018-Feb-24 22:00N 68°03' E 016°05'2 4.4
2018-Feb-24 21:30N 68°04' E 016°09'5 9.5
2018-Feb-24 21:00N 68°06' E 016°21'2 4.6
2018-Feb-24 20:29N 68°06' E 016°15'510.2
2018-Feb-24 20:00N 68°03' E 016°05'2 4.0
2018-Feb-24 19:30N 68°04' E 016°08'510.1
2018-Feb-24 19:00N 68°06' E 016°21'2 4.8
2018-Feb-24 18:30N 68°06' E 016°15'5 9.7
2018-Feb-24 18:00N 68°03' E 016°05'3 5.2
2018-Feb-24 17:30N 68°05' E 016°10'4 8.0
2018-Feb-24 16:58N 68°06' E 016°21'3 6.0
2018-Feb-24 16:30N 68°06' E 016°14'4 8.6
2018-Feb-24 16:00N 68°03' E 016°05'3 5.2
2018-Feb-24 15:30N 68°05' E 016°10'4 8.5
2018-Feb-24 15:00N 68°06' E 016°21'3 5.5
2018-Feb-24 14:30N 68°06' E 016°14'4 8.5
2018-Feb-24 13:59N 68°03' E 016°05'3 5.6
2018-Feb-24 13:28N 68°05' E 016°11'4 8.8
2018-Feb-24 13:00N 68°06' E 016°21'3 5.5
2018-Feb-24 12:30N 68°06' E 016°14'4 8.8
2018-Feb-24 12:00N 68°03' E 016°05'2 4.9
2018-Feb-24 11:30N 68°05' E 016°10'4 8.7
2018-Feb-24 11:00N 68°06' E 016°21'3 5.3
2018-Feb-24 10:30N 68°06' E 016°14'5 9.1
2018-Feb-24 10:00N 68°03' E 016°05'3 5.1
2018-Feb-24 09:30N 68°05' E 016°10'4 8.6
2018-Feb-24 09:00N 68°06' E 016°21'3 5.6
2018-Feb-24 08:29N 68°06' E 016°14'4 8.6
2018-Feb-24 08:00N 68°03' E 016°05'2 4.3
2018-Feb-24 07:29N 68°04' E 016°09'5 9.7
2018-Feb-24 07:00N 68°06' E 016°21'0 0.9
2018-Feb-24 06:30N 68°06' E 016°20'5 9.8
2018-Feb-24 06:00N 68°04' E 016°08'0 0.4
2018-Feb-24 05:30N 68°04' E 016°08'510.1
2018-Feb-24 05:00N 68°06' E 016°21'0 0.0
2018-Feb-24 04:28N 68°06' E 016°21'0 0.0
2018-Feb-24 03:58N 68°06' E 016°21'0 0.0
2018-Feb-24 03:28N 68°06' E 016°21'0 0.0
2018-Feb-24 02:58N 68°06' E 016°21'0 0.0
2018-Feb-24 02:28N 68°06' E 016°21'0 0.0
2018-Feb-24 01:58N 68°06' E 016°21'0 0.0
2018-Feb-24 01:25N 68°06' E 016°21'0 0.0
2018-Feb-24 00:58N 68°06' E 016°21'0 0.0
2018-Feb-24 00:28N 68°06' E 016°21'0 0.0
2018-Feb-23 23:58N 68°06' E 016°21'0 0.0
2018-Feb-23 23:28N 68°06' E 016°21'0 0.0
2018-Feb-23 22:58N 68°06' E 016°21'3 5.5
2018-Feb-23 22:30N 68°06' E 016°14'5 9.7
2018-Feb-23 22:00N 68°03' E 016°05'2 4.3
2018-Feb-23 21:30N 68°04' E 016°09'5 9.5
2018-Feb-23 21:00N 68°06' E 016°21'2 4.7
2018-Feb-23 20:30N 68°06' E 016°15'5 9.9
2018-Feb-23 20:00N 68°03' E 016°05'2 4.5
2018-Feb-23 19:30N 68°04' E 016°09'5 9.2
2018-Feb-23 19:00N 68°06' E 016°21'2 5.0
2018-Feb-23 18:30N 68°06' E 016°15'5 9.6
2018-Feb-23 18:00N 68°03' E 016°05'3 5.2
2018-Feb-23 17:30N 68°05' E 016°10'4 8.5
2018-Feb-23 17:00N 68°06' E 016°21'3 5.6
2018-Feb-23 16:30N 68°06' E 016°14'4 8.8
2018-Feb-23 16:00N 68°03' E 016°05'3 6.1
2018-Feb-23 15:30N 68°05' E 016°11'4 7.6
2018-Feb-23 15:00N 68°06' E 016°21'3 5.4
2018-Feb-23 14:29N 68°06' E 016°14'4 9.2
2018-Feb-23 14:00N 68°03' E 016°05'3 5.3
2018-Feb-23 13:30N 68°05' E 016°10'4 8.3
2018-Feb-23 13:00N 68°06' E 016°21'3 5.5
2018-Feb-23 12:28N 68°06' E 016°14'4 9.2
2018-Feb-23 12:00N 68°03' E 016°05'3 5.8
2018-Feb-23 11:30N 68°05' E 016°11'4 7.8
2018-Feb-23 10:59N 68°06' E 016°21'3 6.0
2018-Feb-23 10:30N 68°06' E 016°13'4 8.2
2018-Feb-23 09:59N 68°03' E 016°05'3 5.6
2018-Feb-23 09:30N 68°05' E 016°10'4 8.3
2018-Feb-23 09:00N 68°06' E 016°21'3 5.3
2018-Feb-23 08:30N 68°06' E 016°14'4 9.2
2018-Feb-23 08:00N 68°03' E 016°05'2 3.8
2018-Feb-23 07:30N 68°04' E 016°08'5 9.8
2018-Feb-23 07:00N 68°06' E 016°21'1 1.8
2018-Feb-23 06:30N 68°06' E 016°19'5 9.4
2018-Feb-23 06:00N 68°04' E 016°07'1 1.3
2018-Feb-23 05:30N 68°04' E 016°09'5 9.8
2018-Feb-23 04:59N 68°06' E 016°21'0 0.0
2018-Feb-23 04:29N 68°06' E 016°21'0 0.0
2018-Feb-23 03:59N 68°06' E 016°21'0 0.0
2018-Feb-23 03:29N 68°06' E 016°21'0 0.0
2018-Feb-23 02:59N 68°06' E 016°21'0 0.0
2018-Feb-23 02:29N 68°06' E 016°21'0 0.0
2018-Feb-23 01:59N 68°06' E 016°21'0 0.0
2018-Feb-23 01:29N 68°06' E 016°21'0 0.0
2018-Feb-23 00:59N 68°06' E 016°21'0 0.0
2018-Feb-23 00:29N 68°06' E 016°21'0 0.0
2018-Feb-22 23:59N 68°06' E 016°21'0 0.0
2018-Feb-22 23:29N 68°06' E 016°21'0 0.0
2018-Feb-22 22:59N 68°06' E 016°21'3 5.3
2018-Feb-22 22:30N 68°06' E 016°15'5 9.4
2018-Feb-22 22:00N 68°03' E 016°05'2 4.7
2018-Feb-22 21:30N 68°04' E 016°10'5 9.1
2018-Feb-22 21:00N 68°06' E 016°21'2 4.7
2018-Feb-22 20:30N 68°06' E 016°15'5 9.4
2018-Feb-22 19:58N 68°03' E 016°05'2 3.9
2018-Feb-22 19:30N 68°04' E 016°09'5 9.8
2018-Feb-22 19:00N 68°06' E 016°21'3 5.7
2018-Feb-22 18:30N 68°06' E 016°14'4 8.8
2018-Feb-22 18:00N 68°03' E 016°05'3 5.7
2018-Feb-22 17:30N 68°05' E 016°11'4 7.7
2018-Feb-22 16:59N 68°06' E 016°21'3 6.1
2018-Feb-22 16:29N 68°05' E 016°13'4 8.3
2018-Feb-22 16:00N 68°03' E 016°05'3 5.5
2018-Feb-22 15:30N 68°05' E 016°11'4 8.2
2018-Feb-22 15:00N 68°06' E 016°21'3 5.7
2018-Feb-22 14:30N 68°05' E 016°14'4 8.2
2018-Feb-22 13:59N 68°03' E 016°05'3 5.7
2018-Feb-22 13:30N 68°05' E 016°11'4 8.3
2018-Feb-22 13:00N 68°06' E 016°21'3 5.8
2018-Feb-22 12:29N 68°05' E 016°13'4 8.1
2018-Feb-22 11:59N 68°03' E 016°05'3 5.3
2018-Feb-22 11:30N 68°05' E 016°10'4 8.7
2018-Feb-22 11:00N 68°06' E 016°21'3 5.3
2018-Feb-22 10:29N 68°06' E 016°14'4 8.9
2018-Feb-22 10:00N 68°03' E 016°05'3 6.2
2018-Feb-22 09:30N 68°05' E 016°11'4 7.7
2018-Feb-22 09:00N 68°06' E 016°21'3 5.3
2018-Feb-22 08:30N 68°06' E 016°14'4 8.9
2018-Feb-22 08:00N 68°03' E 016°05'2 3.8
2018-Feb-22 07:30N 68°04' E 016°09'5 9.7
2018-Feb-22 06:59N 68°06' E 016°21'1 2.5
2018-Feb-22 06:30N 68°06' E 016°18'5 9.5
2018-Feb-22 06:00N 68°04' E 016°07'1 1.8
2018-Feb-22 05:30N 68°04' E 016°09'5 9.7
2018-Feb-22 05:00N 68°06' E 016°21'0 0.0
2018-Feb-22 04:26N 68°06' E 016°21'0 0.0
2018-Feb-22 03:59N 68°06' E 016°21'0 0.0
2018-Feb-22 03:29N 68°06' E 016°21'0 0.0
2018-Feb-22 02:59N 68°06' E 016°21'0 0.0
2018-Feb-22 02:26N 68°06' E 016°21'0 0.0
2018-Feb-22 01:59N 68°06' E 016°21'0 0.0
2018-Feb-22 01:29N 68°06' E 016°21'0 0.0
2018-Feb-22 00:59N 68°06' E 016°21'0 0.0
2018-Feb-22 00:29N 68°06' E 016°21'0 0.0
2018-Feb-21 23:59N 68°06' E 016°21'0 0.0
2018-Feb-21 23:29N 68°06' E 016°21'0 0.0
2018-Feb-21 22:59N 68°06' E 016°21'2 5.1
2018-Feb-21 22:30N 68°06' E 016°15'5 9.7
2018-Feb-21 22:00N 68°03' E 016°05'2 4.2
2018-Feb-21 21:30N 68°04' E 016°09'5 9.5
2018-Feb-21 21:00N 68°06' E 016°21'2 4.3
2018-Feb-21 20:30N 68°06' E 016°16'510.0
2018-Feb-21 20:00N 68°03' E 016°05'2 4.9
2018-Feb-21 19:30N 68°04' E 016°10'4 9.0
2018-Feb-21 19:00N 68°06' E 016°21'3 5.2
2018-Feb-21 18:30N 68°06' E 016°14'5 9.1
2018-Feb-21 18:00N 68°03' E 016°05'3 5.1
2018-Feb-21 17:30N 68°05' E 016°10'4 8.7
2018-Feb-21 17:00N 68°06' E 016°21'3 5.2
2018-Feb-21 16:30N 68°06' E 016°14'5 9.2
2018-Feb-21 16:00N 68°03' E 016°05'3 5.9
2018-Feb-21 15:30N 68°05' E 016°11'4 8.0
2018-Feb-21 15:00N 68°06' E 016°21'3 5.9
2018-Feb-21 14:30N 68°05' E 016°13'4 8.0
2018-Feb-21 13:59N 68°03' E 016°05'3 6.0
2018-Feb-21 13:30N 68°05' E 016°11'4 7.6
2018-Feb-21 12:59N 68°06' E 016°21'3 6.1
2018-Feb-21 12:30N 68°05' E 016°13'4 8.2
2018-Feb-21 12:00N 68°03' E 016°05'3 5.3
2018-Feb-21 11:29N 68°05' E 016°11'4 8.7
2018-Feb-21 11:00N 68°06' E 016°21'3 5.3
2018-Feb-21 10:30N 68°06' E 016°14'4 8.6
2018-Feb-21 09:59N 68°03' E 016°05'3 6.0
2018-Feb-21 09:30N 68°05' E 016°11'4 8.0
2018-Feb-21 09:00N 68°06' E 016°21'3 5.9
2018-Feb-21 08:29N 68°05' E 016°13'4 8.3
2018-Feb-21 08:00N 68°03' E 016°05'2 3.4
2018-Feb-21 07:30N 68°04' E 016°08'510.2
2018-Feb-21 07:00N 68°06' E 016°21'0 0.7
2018-Feb-21 06:30N 68°05' E 016°20'5 9.7
2018-Feb-21 06:00N 68°04' E 016°08'0 0.7
2018-Feb-21 05:30N 68°04' E 016°09'510.0
2018-Feb-21 05:00N 68°06' E 016°21'0 0.0
2018-Feb-21 04:29N 68°06' E 016°21'0 0.0
2018-Feb-21 03:59N 68°06' E 016°21'0 0.0
2018-Feb-21 03:29N 68°06' E 016°21'0 0.0
2018-Feb-21 02:59N 68°06' E 016°21'0 0.0
2018-Feb-21 02:30N 68°06' E 016°21'0 0.0
2018-Feb-21 01:59N 68°06' E 016°21'0 0.0
2018-Feb-21 01:29N 68°06' E 016°21'0 0.0
2018-Feb-21 00:59N 68°06' E 016°21'0 0.0
2018-Feb-21 00:30N 68°06' E 016°21'0 0.0
2018-Feb-20 23:59N 68°06' E 016°21'0 0.0
2018-Feb-20 23:29N 68°06' E 016°21'0 0.0
2018-Feb-20 23:00N 68°06' E 016°21'2 4.6
2018-Feb-20 22:30N 68°06' E 016°15'5 9.7
2018-Feb-20 22:00N 68°03' E 016°05'2 4.5
2018-Feb-20 21:30N 68°04' E 016°09'5 9.5
2018-Feb-20 21:00N 68°06' E 016°21'2 4.4
2018-Feb-20 20:30N 68°06' E 016°16'510.2
2018-Feb-20 20:00N 68°03' E 016°05'3 5.8
2018-Feb-20 19:30N 68°05' E 016°11'4 8.1
2018-Feb-20 19:00N 68°06' E 016°21'3 6.5
2018-Feb-20 18:30N 68°06' E 016°13'4 8.0
2018-Feb-20 18:00N 68°03' E 016°05'3 5.6
2018-Feb-20 17:30N 68°05' E 016°11'4 8.1
2018-Feb-20 17:00N 68°06' E 016°21'3 5.7
2018-Feb-20 16:30N 68°06' E 016°14'4 8.7
2018-Feb-20 16:00N 68°03' E 016°05'3 5.7
2018-Feb-20 15:30N 68°05' E 016°11'4 8.0
2018-Feb-20 15:00N 68°06' E 016°21'3 5.2
2018-Feb-20 14:30N 68°06' E 016°14'5 8.9
2018-Feb-20 14:00N 68°03' E 016°05'3 6.5
2018-Feb-20 13:30N 68°05' E 016°12'4 7.5
2018-Feb-20 13:00N 68°06' E 016°21'3 5.5
2018-Feb-20 12:30N 68°06' E 016°14'4 8.6
2018-Feb-20 12:00N 68°03' E 016°05'3 5.7
2018-Feb-20 11:30N 68°05' E 016°11'4 8.1
2018-Feb-20 11:00N 68°06' E 016°21'3 5.8
2018-Feb-20 10:30N 68°05' E 016°14'4 8.5
2018-Feb-20 10:00N 68°03' E 016°05'3 5.3
2018-Feb-20 09:30N 68°05' E 016°10'4 8.6
2018-Feb-20 09:00N 68°06' E 016°21'3 5.5
2018-Feb-20 08:30N 68°06' E 016°14'4 8.5
2018-Feb-20 08:00N 68°03' E 016°05'2 3.7
2018-Feb-20 07:30N 68°04' E 016°08'510.1
2018-Feb-20 07:01N 68°06' E 016°21'0 0.9
2018-Feb-20 06:31N 68°05' E 016°20'5 9.8
2018-Feb-20 06:00N 68°04' E 016°07'1 2.0
2018-Feb-20 05:30N 68°04' E 016°10'5 9.1
2018-Feb-20 05:00N 68°06' E 016°21'0 0.0
2018-Feb-20 04:28N 68°06' E 016°21'0 0.0
2018-Feb-20 03:58N 68°06' E 016°21'0 0.0
2018-Feb-20 03:28N 68°06' E 016°21'0 0.0
2018-Feb-20 02:58N 68°06' E 016°21'0 0.0
2018-Feb-20 02:28N 68°06' E 016°21'0 0.0
2018-Feb-20 01:58N 68°06' E 016°21'0 0.0
2018-Feb-20 01:28N 68°06' E 016°21'0 0.0
2018-Feb-20 00:58N 68°06' E 016°21'0 0.0
2018-Feb-20 00:28N 68°06' E 016°21'0 0.0
2018-Feb-20 00:00N 68°06' E 016°21'0 0.0
2018-Feb-19 23:30N 68°06' E 016°21'0 0.7
2018-Feb-19 22:59N 68°05' E 016°21'2 4.4
2018-Feb-19 22:30N 68°06' E 016°15'5 9.8
2018-Feb-19 22:00N 68°03' E 016°05'2 4.9
2018-Feb-19 21:30N 68°05' E 016°10'4 8.9
2018-Feb-19 21:00N 68°06' E 016°21'3 5.0
2018-Feb-19 20:29N 68°06' E 016°15'5 9.7
2018-Feb-19 20:00N 68°03' E 016°05'3 5.1
2018-Feb-19 19:30N 68°04' E 016°10'4 8.4
2018-Feb-19 18:59N 68°06' E 016°21'3 6.0
2018-Feb-19 18:30N 68°06' E 016°14'4 8.8
2018-Feb-19 18:00N 68°03' E 016°05'3 6.3
2018-Feb-19 17:30N 68°05' E 016°11'4 7.3
2018-Feb-19 16:59N 68°06' E 016°21'4 7.3
2018-Feb-19 16:29N 68°05' E 016°12'3 6.4
2018-Feb-19 15:59N 68°03' E 016°05'3 6.8
2018-Feb-19 15:30N 68°05' E 016°12'4 7.5
2018-Feb-19 15:00N 68°06' E 016°21'3 6.2
2018-Feb-19 14:30N 68°05' E 016°13'4 7.8
2018-Feb-19 14:00N 68°03' E 016°05'3 5.1
2018-Feb-19 13:30N 68°04' E 016°10'4 8.6
2018-Feb-19 13:00N 68°06' E 016°21'3 5.5
2018-Feb-19 12:30N 68°06' E 016°14'4 8.8
2018-Feb-19 12:00N 68°03' E 016°05'3 5.1
2018-Feb-19 11:30N 68°05' E 016°10'4 8.2
2018-Feb-19 10:59N 68°06' E 016°21'3 5.6
2018-Feb-19 10:30N 68°06' E 016°14'4 8.9
2018-Feb-19 10:00N 68°03' E 016°05'3 5.2
2018-Feb-19 09:30N 68°05' E 016°10'4 8.4
2018-Feb-19 09:00N 68°06' E 016°21'3 6.0
2018-Feb-19 08:30N 68°05' E 016°13'4 8.0
2018-Feb-19 08:00N 68°03' E 016°05'2 3.5
2018-Feb-19 07:30N 68°04' E 016°08'510.0
2018-Feb-19 07:00N 68°06' E 016°21'1 1.0
2018-Feb-19 06:29N 68°05' E 016°20'5 9.9
2018-Feb-19 05:59N 68°04' E 016°07'1 2.1
2018-Feb-19 05:30N 68°04' E 016°09'5 9.0
2018-Feb-19 04:59N 68°06' E 016°21'0 0.0
2018-Feb-19 04:25N 68°06' E 016°21'0 0.0
2018-Feb-19 03:55N 68°06' E 016°21'0 0.0
2018-Feb-19 03:28N 68°06' E 016°21'0 0.0
2018-Feb-19 02:58N 68°06' E 016°21'0 0.0
2018-Feb-19 02:22N 68°06' E 016°21'0 0.0
2018-Feb-19 01:55N 68°06' E 016°21'0 0.0
2018-Feb-19 01:13N 68°06' E 016°21'0 0.0
2018-Feb-19 00:58N 68°06' E 016°21'0 0.0
2018-Feb-19 00:28N 68°06' E 016°21'0 0.0
2018-Feb-18 23:58N 68°06' E 016°21'0 0.0
2018-Feb-18 23:28N 68°06' E 016°21'0 0.0
2018-Feb-18 22:58N 68°06' E 016°21'2 5.2
2018-Feb-18 22:30N 68°06' E 016°15'5 9.6
2018-Feb-18 22:00N 68°03' E 016°05'2 4.7
2018-Feb-18 21:29N 68°04' E 016°10'4 9.2
2018-Feb-18 21:00N 68°06' E 016°21'3 5.1
2018-Feb-18 20:29N 68°06' E 016°14'5 9.7
2018-Feb-18 20:00N 68°03' E 016°05'2 4.9
2018-Feb-18 19:30N 68°04' E 016°10'4 8.5
2018-Feb-18 18:59N 68°06' E 016°21'3 5.8
2018-Feb-18 18:30N 68°06' E 016°14'4 9.0
2018-Feb-18 18:00N 68°03' E 016°05'3 6.2
2018-Feb-18 17:30N 68°05' E 016°11'4 7.7
2018-Feb-18 17:00N 68°06' E 016°21'3 5.4
2018-Feb-18 16:30N 68°06' E 016°14'4 8.8
2018-Feb-18 16:00N 68°03' E 016°05'3 5.4
2018-Feb-18 15:30N 68°05' E 016°10'4 8.4
2018-Feb-18 15:00N 68°06' E 016°21'3 5.5
2018-Feb-18 14:29N 68°06' E 016°14'4 8.4
2018-Feb-18 13:59N 68°03' E 016°05'3 5.5
2018-Feb-18 13:30N 68°05' E 016°10'4 8.6
2018-Feb-18 13:00N 68°06' E 016°21'3 5.2
2018-Feb-18 12:30N 68°06' E 016°14'4 8.9
2018-Feb-18 12:00N 68°03' E 016°05'3 5.2
2018-Feb-18 11:30N 68°05' E 016°10'4 8.6
2018-Feb-18 11:00N 68°06' E 016°21'3 5.1
2018-Feb-18 10:30N 68°06' E 016°14'5 8.7
2018-Feb-18 09:59N 68°03' E 016°05'3 5.5
2018-Feb-18 09:29N 68°05' E 016°11'4 8.4
2018-Feb-18 08:59N 68°06' E 016°21'3 5.6
2018-Feb-18 08:29N 68°06' E 016°14'4 8.8
2018-Feb-18 08:00N 68°03' E 016°05'2 3.8
2018-Feb-18 07:29N 68°04' E 016°09'510.1
2018-Feb-18 07:01N 68°06' E 016°21'1 2.1
2018-Feb-18 06:30N 68°06' E 016°18'5 9.2
2018-Feb-18 06:00N 68°04' E 016°07'2 3.0
2018-Feb-18 05:29N 68°05' E 016°10'4 9.0
2018-Feb-18 05:00N 68°06' E 016°21'0 0.0
2018-Feb-18 04:30N 68°06' E 016°21'0 0.0
2018-Feb-18 04:00N 68°06' E 016°21'0 0.0
2018-Feb-18 03:30N 68°06' E 016°21'0 0.0
2018-Feb-18 03:00N 68°06' E 016°21'0 0.0
2018-Feb-18 02:30N 68°06' E 016°21'0 0.0
2018-Feb-18 02:00N 68°06' E 016°21'0 0.0
2018-Feb-18 01:30N 68°06' E 016°21'0 0.0
2018-Feb-18 01:00N 68°06' E 016°21'0 0.0
2018-Feb-18 00:30N 68°06' E 016°21'0 0.0
2018-Feb-18 00:00N 68°06' E 016°21'0 0.0
2018-Feb-17 23:30N 68°06' E 016°21'0 0.0
2018-Feb-17 23:00N 68°06' E 016°21'3 5.1
2018-Feb-17 22:30N 68°06' E 016°15'5 9.6
2018-Feb-17 22:01N 68°03' E 016°05'2 4.2
2018-Feb-17 21:30N 68°04' E 016°09'5 9.2
2018-Feb-17 21:00N 68°06' E 016°21'2 4.8
2018-Feb-17 20:30N 68°06' E 016°15'5 9.9
2018-Feb-17 20:00N 68°03' E 016°05'2 4.7
2018-Feb-17 19:30N 68°04' E 016°10'4 9.0
2018-Feb-17 19:00N 68°06' E 016°21'3 5.0
2018-Feb-17 18:30N 68°06' E 016°15'5 9.7
2018-Feb-17 18:01N 68°03' E 016°05'2 4.8
2018-Feb-17 17:30N 68°04' E 016°10'4 8.8
2018-Feb-17 17:00N 68°06' E 016°21'3 5.2
2018-Feb-17 16:29N 68°06' E 016°14'4 9.1
2018-Feb-17 16:00N 68°03' E 016°05'3 5.1
2018-Feb-17 15:30N 68°05' E 016°10'4 8.5
2018-Feb-17 15:00N 68°06' E 016°21'3 5.3
2018-Feb-17 14:29N 68°06' E 016°14'4 9.3
2018-Feb-17 14:01N 68°03' E 016°05'3 5.0
2018-Feb-17 13:30N 68°04' E 016°10'4 8.6
2018-Feb-17 13:00N 68°06' E 016°21'3 5.6
2018-Feb-17 12:31N 68°06' E 016°14'4 8.4
2018-Feb-17 12:00N 68°03' E 016°05'3 5.3
2018-Feb-17 11:30N 68°05' E 016°10'4 8.5
2018-Feb-17 11:00N 68°06' E 016°21'3 5.2
2018-Feb-17 10:30N 68°06' E 016°15'5 9.1
2018-Feb-17 10:01N 68°03' E 016°05'3 5.1
2018-Feb-17 09:30N 68°05' E 016°10'4 8.4
2018-Feb-17 09:00N 68°06' E 016°21'3 5.3
2018-Feb-17 08:29N 68°06' E 016°14'4 9.0
2018-Feb-17 08:00N 68°03' E 016°05'2 3.9
2018-Feb-17 07:29N 68°04' E 016°09'5 9.6
2018-Feb-17 06:59N 68°06' E 016°21'1 1.6
2018-Feb-17 06:30N 68°06' E 016°19'5 9.1
2018-Feb-17 06:00N 68°04' E 016°08'0 0.8
2018-Feb-17 05:30N 68°04' E 016°09'5 9.9
2018-Feb-17 05:00N 68°06' E 016°21'0 0.0
2018-Feb-17 04:30N 68°06' E 016°21'0 0.0
2018-Feb-17 04:00N 68°06' E 016°21'0 0.0
2018-Feb-17 03:30N 68°06' E 016°21'0 0.0
2018-Feb-17 03:00N 68°06' E 016°21'0 0.0
2018-Feb-17 02:30N 68°06' E 016°21'0 0.0
2018-Feb-17 02:00N 68°06' E 016°21'0 0.0
2018-Feb-17 01:30N 68°06' E 016°21'0 0.0
2018-Feb-17 01:00N 68°06' E 016°21'0 0.0
2018-Feb-17 00:30N 68°06' E 016°21'0 0.0
2018-Feb-17 00:00N 68°06' E 016°21'0 0.0
2018-Feb-16 23:30N 68°06' E 016°21'0 0.0
2018-Feb-16 23:00N 68°06' E 016°21'2 4.9
2018-Feb-16 22:30N 68°06' E 016°15'5 9.5
2018-Feb-16 22:00N 68°03' E 016°05'2 5.0
2018-Feb-16 21:30N 68°05' E 016°10'4 8.9
2018-Feb-16 21:00N 68°06' E 016°21'2 4.9
2018-Feb-16 20:30N 68°06' E 016°15'5 9.8
2018-Feb-16 20:00N 68°03' E 016°05'3 5.0
2018-Feb-16 19:29N 68°05' E 016°10'4 8.8
2018-Feb-16 19:00N 68°06' E 016°21'2 5.0
2018-Feb-16 18:31N 68°06' E 016°15'5 9.7
2018-Feb-16 18:00N 68°03' E 016°05'2 4.2
2018-Feb-16 17:31N 68°04' E 016°09'5 9.3
2018-Feb-16 16:59N 68°06' E 016°21'3 5.3
2018-Feb-16 16:30N 68°06' E 016°14'5 9.2
2018-Feb-16 16:01N 68°03' E 016°05'2 4.2
2018-Feb-16 15:30N 68°04' E 016°09'5 9.5
2018-Feb-16 15:00N 68°06' E 016°21'2 4.7
2018-Feb-16 14:30N 68°06' E 016°15'5 9.6
2018-Feb-16 14:00N 68°03' E 016°05'2 4.7
2018-Feb-16 13:30N 68°04' E 016°10'4 8.8
2018-Feb-16 13:00N 68°06' E 016°21'2 4.7
2018-Feb-16 12:29N 68°06' E 016°15'510.0
2018-Feb-16 12:00N 68°03' E 016°05'3 5.1
2018-Feb-16 11:29N 68°05' E 016°10'4 8.8
2018-Feb-16 11:00N 68°06' E 016°21'2 4.7
2018-Feb-16 10:30N 68°06' E 016°15'5 9.9
2018-Feb-16 10:00N 68°03' E 016°05'2 4.9
2018-Feb-16 09:30N 68°04' E 016°10'4 8.7
2018-Feb-16 09:00N 68°06' E 016°21'3 5.0
2018-Feb-16 08:29N 68°06' E 016°15'5 9.7
2018-Feb-16 08:00N 68°03' E 016°05'2 3.9
2018-Feb-16 07:29N 68°04' E 016°09'5 9.9
2018-Feb-16 07:00N 68°06' E 016°21'0 0.5
2018-Feb-16 06:30N 68°05' E 016°21'5 9.9
2018-Feb-16 06:01N 68°04' E 016°08'0 0.9
2018-Feb-16 05:30N 68°04' E 016°09'5 7.1
2018-Feb-16 04:49N 68°06' E 016°21'0 0.0
2018-Feb-16 04:28N 68°06' E 016°21'0 0.0
2018-Feb-16 03:58N 68°06' E 016°21'0 0.0
2018-Feb-16 03:28N 68°06' E 016°21'0 0.0
2018-Feb-16 02:55N 68°06' E 016°21'0 0.0
2018-Feb-16 02:25N 68°06' E 016°21'0 0.0
2018-Feb-16 01:58N 68°06' E 016°21'0 0.0
2018-Feb-16 01:28N 68°06' E 016°21'0 0.0
2018-Feb-16 00:58N 68°06' E 016°21'0 0.0
2018-Feb-16 00:28N 68°06' E 016°21'0 0.0
2018-Feb-15 23:58N 68°06' E 016°21'0 0.0
2018-Feb-15 23:28N 68°06' E 016°21'0 0.0
2018-Feb-15 22:58N 68°06' E 016°21'2 5.2
2018-Feb-15 22:30N 68°06' E 016°15'5 9.7
2018-Feb-15 22:00N 68°03' E 016°05'2 4.2
2018-Feb-15 21:30N 68°04' E 016°09'5 9.4
2018-Feb-15 21:00N 68°06' E 016°21'2 4.5
2018-Feb-15 20:28N 68°06' E 016°15'510.3
2018-Feb-15 20:00N 68°03' E 016°05'2 3.9
2018-Feb-15 19:31N 68°04' E 016°09'5 9.8
2018-Feb-15 19:00N 68°06' E 016°21'2 4.1
2018-Feb-15 18:30N 68°06' E 016°16'510.2
2018-Feb-15 18:00N 68°03' E 016°05'2 4.1
2018-Feb-15 17:31N 68°04' E 016°09'5 9.6
2018-Feb-15 17:00N 68°06' E 016°21'3 5.0
2018-Feb-15 16:30N 68°06' E 016°14'5 9.0
2018-Feb-15 15:59N 68°03' E 016°05'2 4.4
2018-Feb-15 15:30N 68°04' E 016°09'5 9.5
2018-Feb-15 15:01N 68°06' E 016°21'2 4.7
2018-Feb-15 14:30N 68°06' E 016°15'5 9.4
2018-Feb-15 14:00N 68°03' E 016°05'2 4.5
2018-Feb-15 13:30N 68°04' E 016°09'5 9.4
2018-Feb-15 13:00N 68°06' E 016°21'3 5.2
2018-Feb-15 12:30N 68°06' E 016°14'  
Track history (hours):
 
Tides and Currents Weather Stations Pressure Air Temp Water Temp Dewpoint Dewpoint Depression Visibility Wind Speed Wind Dir Waves Ship Positions

Vardehorn

Last reported at 2018-Feb-25 12:00 UTC. Time now 2018-Feb-25 12:12 UTC.
Position N 68°03' E 016°05'.

Length 112 m; draft 3.2 m.

Type: Passenger vessel. MMSI: 259650000.

Date/timePositionNaut miles runAvg speedWind from/ knotsBaromVisibWave heightAir tempDewpointWater temp
2018-Feb-25 12:00N 68°03' E 016°05'3 5.8
2018-Feb-25 11:30N 68°05' E 016°11'4 7.8
2018-Feb-25 11:00N 68°06' E 016°21'3 5.4
2018-Feb-25 10:30N 68°06' E 016°14'4 8.8
2018-Feb-25 10:00N 68°03' E 016°05'3 5.3
2018-Feb-25 09:28N 68°05' E 016°11'4 8.7
2018-Feb-25 09:00N 68°06' E 016°21'3 5.1
2018-Feb-25 08:30N 68°06' E 016°14'5 9.0
2018-Feb-25 08:00N 68°03' E 016°05'2 3.5
2018-Feb-25 07:30N 68°04' E 016°08'510.2
2018-Feb-25 07:00N 68°06' E 016°21'1 1.4
2018-Feb-25 06:30N 68°06' E 016°20'5 9.2
2018-Feb-25 06:00N 68°04' E 016°08'1 1.3
2018-Feb-25 05:30N 68°04' E 016°09'5 9.6
2018-Feb-25 05:00N 68°06' E 016°21'0 0.0
2018-Feb-25 04:30N 68°06' E 016°21'0 0.0
2018-Feb-25 04:00N 68°06' E 016°21'0 0.0
2018-Feb-25 03:30N 68°06' E 016°21'0 0.0
2018-Feb-25 03:00N 68°06' E 016°21'0 0.0
2018-Feb-25 02:30N 68°06' E 016°21'0 0.0
2018-Feb-25 02:00N 68°06' E 016°21'0 0.0
2018-Feb-25 01:30N 68°06' E 016°21'0 0.0
2018-Feb-25 01:00N 68°06' E 016°21'0 0.0
2018-Feb-25 00:30N 68°06' E 016°21'0 0.0
2018-Feb-25 00:00N 68°06' E 016°21'0 0.0
2018-Feb-24 23:30N 68°06' E 016°21'0 0.0
2018-Feb-24 23:00N 68°06' E 016°21'3 5.3
2018-Feb-24 22:30N 68°06' E 016°14'5 9.4
2018-Feb-24 22:00N 68°03' E 016°05'2 4.4
2018-Feb-24 21:30N 68°04' E 016°09'5 9.5
2018-Feb-24 21:00N 68°06' E 016°21'2 4.6
2018-Feb-24 20:29N 68°06' E 016°15'510.2
2018-Feb-24 20:00N 68°03' E 016°05'2 4.0
2018-Feb-24 19:30N 68°04' E 016°08'510.1
2018-Feb-24 19:00N 68°06' E 016°21'2 4.8
2018-Feb-24 18:30N 68°06' E 016°15'5 9.7
2018-Feb-24 18:00N 68°03' E 016°05'3 5.2
2018-Feb-24 17:30N 68°05' E 016°10'4 8.0
2018-Feb-24 16:58N 68°06' E 016°21'3 6.0
2018-Feb-24 16:30N 68°06' E 016°14'4 8.6
2018-Feb-24 16:00N 68°03' E 016°05'3 5.2
2018-Feb-24 15:30N 68°05' E 016°10'4 8.5
2018-Feb-24 15:00N 68°06' E 016°21'3 5.5
2018-Feb-24 14:30N 68°06' E 016°14'4 8.5
2018-Feb-24 13:59N 68°03' E 016°05'3 5.6
2018-Feb-24 13:28N 68°05' E 016°11'4 8.8
2018-Feb-24 13:00N 68°06' E 016°21'3 5.5
2018-Feb-24 12:30N 68°06' E 016°14'4 8.8
2018-Feb-24 12:00N 68°03' E 016°05'2 4.9
2018-Feb-24 11:30N 68°05' E 016°10'4 8.7
2018-Feb-24 11:00N 68°06' E 016°21'3 5.3
2018-Feb-24 10:30N 68°06' E 016°14'5 9.1
2018-Feb-24 10:00N 68°03' E 016°05'3 5.1
2018-Feb-24 09:30N 68°05' E 016°10'4 8.6
2018-Feb-24 09:00N 68°06' E 016°21'3 5.6
2018-Feb-24 08:29N 68°06' E 016°14'4 8.6
2018-Feb-24 08:00N 68°03' E 016°05'2 4.3
2018-Feb-24 07:29N 68°04' E 016°09'5 9.7
2018-Feb-24 07:00N 68°06' E 016°21'0 0.9
2018-Feb-24 06:30N 68°06' E 016°20'5 9.8
2018-Feb-24 06:00N 68°04' E 016°08'0 0.4
2018-Feb-24 05:30N 68°04' E 016°08'510.1
2018-Feb-24 05:00N 68°06' E 016°21'0 0.0
2018-Feb-24 04:28N 68°06' E 016°21'0 0.0
2018-Feb-24 03:58N 68°06' E 016°21'0 0.0
2018-Feb-24 03:28N 68°06' E 016°21'0 0.0
2018-Feb-24 02:58N 68°06' E 016°21'0 0.0
2018-Feb-24 02:28N 68°06' E 016°21'0 0.0
2018-Feb-24 01:58N 68°06' E 016°21'0 0.0
2018-Feb-24 01:25N 68°06' E 016°21'0 0.0
2018-Feb-24 00:58N 68°06' E 016°21'0 0.0
2018-Feb-24 00:28N 68°06' E 016°21'0 0.0
2018-Feb-23 23:58N 68°06' E 016°21'0 0.0
2018-Feb-23 23:28N 68°06' E 016°21'0 0.0
2018-Feb-23 22:58N 68°06' E 016°21'3 5.5
2018-Feb-23 22:30N 68°06' E 016°14'5 9.7
2018-Feb-23 22:00N 68°03' E 016°05'2 4.3
2018-Feb-23 21:30N 68°04' E 016°09'5 9.5
2018-Feb-23 21:00N 68°06' E 016°21'2 4.7
2018-Feb-23 20:30N 68°06' E 016°15'5 9.9
2018-Feb-23 20:00N 68°03' E 016°05'2 4.5
2018-Feb-23 19:30N 68°04' E 016°09'5 9.2
2018-Feb-23 19:00N 68°06' E 016°21'2 5.0
2018-Feb-23 18:30N 68°06' E 016°15'5 9.6
2018-Feb-23 18:00N 68°03' E 016°05'3 5.2
2018-Feb-23 17:30N 68°05' E 016°10'4 8.5
2018-Feb-23 17:00N 68°06' E 016°21'3 5.6
2018-Feb-23 16:30N 68°06' E 016°14'4 8.8
2018-Feb-23 16:00N 68°03' E 016°05'3 6.1
2018-Feb-23 15:30N 68°05' E 016°11'4 7.6
2018-Feb-23 15:00N 68°06' E 016°21'3 5.4
2018-Feb-23 14:29N 68°06' E 016°14'4 9.2
2018-Feb-23 14:00N 68°03' E 016°05'3 5.3
2018-Feb-23 13:30N 68°05' E 016°10'4 8.3
2018-Feb-23 13:00N 68°06' E 016°21'3 5.5
2018-Feb-23 12:28N 68°06' E 016°14'4 9.2
2018-Feb-23 12:00N 68°03' E 016°05'3 5.8
2018-Feb-23 11:30N 68°05' E 016°11'4 7.8
2018-Feb-23 10:59N 68°06' E 016°21'3 6.0
2018-Feb-23 10:30N 68°06' E 016°13'4 8.2
2018-Feb-23 09:59N 68°03' E 016°05'3 5.6
2018-Feb-23 09:30N 68°05' E 016°10'4 8.3
2018-Feb-23 09:00N 68°06' E 016°21'3 5.3
2018-Feb-23 08:30N 68°06' E 016°14'4 9.2
2018-Feb-23 08:00N 68°03' E 016°05'2 3.8
2018-Feb-23 07:30N 68°04' E 016°08'5 9.8
2018-Feb-23 07:00N 68°06' E 016°21'1 1.8
2018-Feb-23 06:30N 68°06' E 016°19'5 9.4
2018-Feb-23 06:00N 68°04' E 016°07'1 1.3
2018-Feb-23 05:30N 68°04' E 016°09'5 9.8
2018-Feb-23 04:59N 68°06' E 016°21'0 0.0
2018-Feb-23 04:29N 68°06' E 016°21'0 0.0
2018-Feb-23 03:59N 68°06' E 016°21'0 0.0
2018-Feb-23 03:29N 68°06' E 016°21'0 0.0
2018-Feb-23 02:59N 68°06' E 016°21'0 0.0
2018-Feb-23 02:29N 68°06' E 016°21'0 0.0
2018-Feb-23 01:59N 68°06' E 016°21'0 0.0
2018-Feb-23 01:29N 68°06' E 016°21'0 0.0
2018-Feb-23 00:59N 68°06' E 016°21'0 0.0
2018-Feb-23 00:29N 68°06' E 016°21'0 0.0
2018-Feb-22 23:59N 68°06' E 016°21'0 0.0
2018-Feb-22 23:29N 68°06' E 016°21'0 0.0
2018-Feb-22 22:59N 68°06' E 016°21'3 5.3
2018-Feb-22 22:30N 68°06' E 016°15'5 9.4
2018-Feb-22 22:00N 68°03' E 016°05'2 4.7
2018-Feb-22 21:30N 68°04' E 016°10'5 9.1
2018-Feb-22 21:00N 68°06' E 016°21'2 4.7
2018-Feb-22 20:30N 68°06' E 016°15'5 9.4
2018-Feb-22 19:58N 68°03' E 016°05'2 3.9
2018-Feb-22 19:30N 68°04' E 016°09'5 9.8
2018-Feb-22 19:00N 68°06' E 016°21'3 5.7
2018-Feb-22 18:30N 68°06' E 016°14'4 8.8
2018-Feb-22 18:00N 68°03' E 016°05'3 5.7
2018-Feb-22 17:30N 68°05' E 016°11'4 7.7
2018-Feb-22 16:59N 68°06' E 016°21'3 6.1
2018-Feb-22 16:29N 68°05' E 016°13'4 8.3
2018-Feb-22 16:00N 68°03' E 016°05'3 5.5
2018-Feb-22 15:30N 68°05' E 016°11'4 8.2
2018-Feb-22 15:00N 68°06' E 016°21'3 5.7
2018-Feb-22 14:30N 68°05' E 016°14'4 8.2
2018-Feb-22 13:59N 68°03' E 016°05'3 5.7
2018-Feb-22 13:30N 68°05' E 016°11'4 8.3
2018-Feb-22 13:00N 68°06' E 016°21'3 5.8
2018-Feb-22 12:29N 68°05' E 016°13'4 8.1
2018-Feb-22 11:59N 68°03' E 016°05'3 5.3
2018-Feb-22 11:30N 68°05' E 016°10'4 8.7
2018-Feb-22 11:00N 68°06' E 016°21'3 5.3
2018-Feb-22 10:29N 68°06' E 016°14'4 8.9
2018-Feb-22 10:00N 68°03' E 016°05'3 6.2
2018-Feb-22 09:30N 68°05' E 016°11'4 7.7
2018-Feb-22 09:00N 68°06' E 016°21'3 5.3
2018-Feb-22 08:30N 68°06' E 016°14'4 8.9
2018-Feb-22 08:00N 68°03' E 016°05'2 3.8
2018-Feb-22 07:30N 68°04' E 016°09'5 9.7
2018-Feb-22 06:59N 68°06' E 016°21'1 2.5
2018-Feb-22 06:30N 68°06' E 016°18'5 9.5
2018-Feb-22 06:00N 68°04' E 016°07'1 1.8
2018-Feb-22 05:30N 68°04' E 016°09'5 9.7
2018-Feb-22 05:00N 68°06' E 016°21'0 0.0
2018-Feb-22 04:26N 68°06' E 016°21'0 0.0
2018-Feb-22 03:59N 68°06' E 016°21'0 0.0
2018-Feb-22 03:29N 68°06' E 016°21'0 0.0
2018-Feb-22 02:59N 68°06' E 016°21'0 0.0
2018-Feb-22 02:26N 68°06' E 016°21'0 0.0
2018-Feb-22 01:59N 68°06' E 016°21'0 0.0
2018-Feb-22 01:29N 68°06' E 016°21'0 0.0
2018-Feb-22 00:59N 68°06' E 016°21'0 0.0
2018-Feb-22 00:29N 68°06' E 016°21'0 0.0
2018-Feb-21 23:59N 68°06' E 016°21'0 0.0
2018-Feb-21 23:29N 68°06' E 016°21'0 0.0
2018-Feb-21 22:59N 68°06' E 016°21'2 5.1
2018-Feb-21 22:30N 68°06' E 016°15'5 9.7
2018-Feb-21 22:00N 68°03' E 016°05'2 4.2
2018-Feb-21 21:30N 68°04' E 016°09'5 9.5
2018-Feb-21 21:00N 68°06' E 016°21'2 4.3
2018-Feb-21 20:30N 68°06' E 016°16'510.0
2018-Feb-21 20:00N 68°03' E 016°05'2 4.9
2018-Feb-21 19:30N 68°04' E 016°10'4 9.0
2018-Feb-21 19:00N 68°06' E 016°21'3 5.2
2018-Feb-21 18:30N 68°06' E 016°14'5 9.1
2018-Feb-21 18:00N 68°03' E 016°05'3 5.1
2018-Feb-21 17:30N 68°05' E 016°10'4 8.7
2018-Feb-21 17:00N 68°06' E 016°21'3 5.2
2018-Feb-21 16:30N 68°06' E 016°14'5 9.2
2018-Feb-21 16:00N 68°03' E 016°05'3 5.9
2018-Feb-21 15:30N 68°05' E 016°11'4 8.0
2018-Feb-21 15:00N 68°06' E 016°21'3 5.9
2018-Feb-21 14:30N 68°05' E 016°13'4 8.0
2018-Feb-21 13:59N 68°03' E 016°05'3 6.0
2018-Feb-21 13:30N 68°05' E 016°11'4 7.6
2018-Feb-21 12:59N 68°06' E 016°21'3 6.1
2018-Feb-21 12:30N 68°05' E 016°13'4 8.2
2018-Feb-21 12:00N 68°03' E 016°05'3 5.3
2018-Feb-21 11:29N 68°05' E 016°11'4 8.7
2018-Feb-21 11:00N 68°06' E 016°21'3 5.3
2018-Feb-21 10:30N 68°06' E 016°14'4 8.6
2018-Feb-21 09:59N 68°03' E 016°05'3 6.0
2018-Feb-21 09:30N 68°05' E 016°11'4 8.0
2018-Feb-21 09:00N 68°06' E 016°21'3 5.9
2018-Feb-21 08:29N 68°05' E 016°13'4 8.3
2018-Feb-21 08:00N 68°03' E 016°05'2 3.4
2018-Feb-21 07:30N 68°04' E 016°08'510.2
2018-Feb-21 07:00N 68°06' E 016°21'0 0.7
2018-Feb-21 06:30N 68°05' E 016°20'5 9.7
2018-Feb-21 06:00N 68°04' E 016°08'0 0.7
2018-Feb-21 05:30N 68°04' E 016°09'510.0
2018-Feb-21 05:00N 68°06' E 016°21'0 0.0
2018-Feb-21 04:29N 68°06' E 016°21'0 0.0
2018-Feb-21 03:59N 68°06' E 016°21'0 0.0
2018-Feb-21 03:29N 68°06' E 016°21'0 0.0
2018-Feb-21 02:59N 68°06' E 016°21'0 0.0
2018-Feb-21 02:30N 68°06' E 016°21'0 0.0
2018-Feb-21 01:59N 68°06' E 016°21'0 0.0
2018-Feb-21 01:29N 68°06' E 016°21'0 0.0
2018-Feb-21 00:59N 68°06' E 016°21'0 0.0
2018-Feb-21 00:30N 68°06' E 016°21'0 0.0
2018-Feb-20 23:59N 68°06' E 016°21'0 0.0
2018-Feb-20 23:29N 68°06' E 016°21'0 0.0
2018-Feb-20 23:00N 68°06' E 016°21'2 4.6
2018-Feb-20 22:30N 68°06' E 016°15'5 9.7
2018-Feb-20 22:00N 68°03' E 016°05'2 4.5
2018-Feb-20 21:30N 68°04' E 016°09'5 9.5
2018-Feb-20 21:00N 68°06' E 016°21'2 4.4
2018-Feb-20 20:30N 68°06' E 016°16'510.2
2018-Feb-20 20:00N 68°03' E 016°05'3 5.8
2018-Feb-20 19:30N 68°05' E 016°11'4 8.1
2018-Feb-20 19:00N 68°06' E 016°21'3 6.5
2018-Feb-20 18:30N 68°06' E 016°13'4 8.0
2018-Feb-20 18:00N 68°03' E 016°05'3 5.6
2018-Feb-20 17:30N 68°05' E 016°11'4 8.1
2018-Feb-20 17:00N 68°06' E 016°21'3 5.7
2018-Feb-20 16:30N 68°06' E 016°14'4 8.7
2018-Feb-20 16:00N 68°03' E 016°05'3 5.7
2018-Feb-20 15:30N 68°05' E 016°11'4 8.0
2018-Feb-20 15:00N 68°06' E 016°21'3 5.2
2018-Feb-20 14:30N 68°06' E 016°14'5 8.9
2018-Feb-20 14:00N 68°03' E 016°05'3 6.5
2018-Feb-20 13:30N 68°05' E 016°12'4 7.5
2018-Feb-20 13:00N 68°06' E 016°21'3 5.5
2018-Feb-20 12:30N 68°06' E 016°14'4 8.6
2018-Feb-20 12:00N 68°03' E 016°05'3 5.7
2018-Feb-20 11:30N 68°05' E 016°11'4 8.1
2018-Feb-20 11:00N 68°06' E 016°21'3 5.8
2018-Feb-20 10:30N 68°05' E 016°14'4 8.5
2018-Feb-20 10:00N 68°03' E 016°05'3 5.3
2018-Feb-20 09:30N 68°05' E 016°10'4 8.6
2018-Feb-20 09:00N 68°06' E 016°21'3 5.5
2018-Feb-20 08:30N 68°06' E 016°14'4 8.5
2018-Feb-20 08:00N 68°03' E 016°05'2 3.7
2018-Feb-20 07:30N 68°04' E 016°08'510.1
2018-Feb-20 07:01N 68°06' E 016°21'0 0.9
2018-Feb-20 06:31N 68°05' E 016°20'5 9.8
2018-Feb-20 06:00N 68°04' E 016°07'1 2.0
2018-Feb-20 05:30N 68°04' E 016°10'5 9.1
2018-Feb-20 05:00N 68°06' E 016°21'0 0.0
2018-Feb-20 04:28N 68°06' E 016°21'0 0.0
2018-Feb-20 03:58N 68°06' E 016°21'0 0.0
2018-Feb-20 03:28N 68°06' E 016°21'0 0.0
2018-Feb-20 02:58N 68°06' E 016°21'0 0.0
2018-Feb-20 02:28N 68°06' E 016°21'0 0.0
2018-Feb-20 01:58N 68°06' E 016°21'0 0.0
2018-Feb-20 01:28N 68°06' E 016°21'0 0.0
2018-Feb-20 00:58N 68°06' E 016°21'0 0.0
2018-Feb-20 00:28N 68°06' E 016°21'0 0.0
2018-Feb-20 00:00N 68°06' E 016°21'0 0.0
2018-Feb-19 23:30N 68°06' E 016°21'0 0.7
2018-Feb-19 22:59N 68°05' E 016°21'2 4.4
2018-Feb-19 22:30N 68°06' E 016°15'5 9.8
2018-Feb-19 22:00N 68°03' E 016°05'2 4.9
2018-Feb-19 21:30N 68°05' E 016°10'4 8.9
2018-Feb-19 21:00N 68°06' E 016°21'3 5.0
2018-Feb-19 20:29N 68°06' E 016°15'5 9.7
2018-Feb-19 20:00N 68°03' E 016°05'3 5.1
2018-Feb-19 19:30N 68°04' E 016°10'4 8.4
2018-Feb-19 18:59N 68°06' E 016°21'3 6.0
2018-Feb-19 18:30N 68°06' E 016°14'4 8.8
2018-Feb-19 18:00N 68°03' E 016°05'3 6.3
2018-Feb-19 17:30N 68°05' E 016°11'4 7.3
2018-Feb-19 16:59N 68°06' E 016°21'4 7.3
2018-Feb-19 16:29N 68°05' E 016°12'3 6.4
2018-Feb-19 15:59N 68°03' E 016°05'3 6.8
2018-Feb-19 15:30N 68°05' E 016°12'4 7.5
2018-Feb-19 15:00N 68°06' E 016°21'3 6.2
2018-Feb-19 14:30N 68°05' E 016°13'4 7.8
2018-Feb-19 14:00N 68°03' E 016°05'3 5.1
2018-Feb-19 13:30N 68°04' E 016°10'4 8.6
2018-Feb-19 13:00N 68°06' E 016°21'3 5.5
2018-Feb-19 12:30N 68°06' E 016°14'4 8.8
2018-Feb-19 12:00N 68°03' E 016°05'3 5.1
2018-Feb-19 11:30N 68°05' E 016°10'4 8.2
2018-Feb-19 10:59N 68°06' E 016°21'3 5.6
2018-Feb-19 10:30N 68°06' E 016°14'4 8.9
2018-Feb-19 10:00N 68°03' E 016°05'3 5.2
2018-Feb-19 09:30N 68°05' E 016°10'4 8.4
2018-Feb-19 09:00N 68°06' E 016°21'3 6.0
2018-Feb-19 08:30N 68°05' E 016°13'4 8.0
2018-Feb-19 08:00N 68°03' E 016°05'2 3.5
2018-Feb-19 07:30N 68°04' E 016°08'510.0
2018-Feb-19 07:00N 68°06' E 016°21'1 1.0
2018-Feb-19 06:29N 68°05' E 016°20'5 9.9
2018-Feb-19 05:59N 68°04' E 016°07'1 2.1
2018-Feb-19 05:30N 68°04' E 016°09'5 9.0
2018-Feb-19 04:59N 68°06' E 016°21'0 0.0
2018-Feb-19 04:25N 68°06' E 016°21'0 0.0
2018-Feb-19 03:55N 68°06' E 016°21'0 0.0
2018-Feb-19 03:28N 68°06' E 016°21'0 0.0
2018-Feb-19 02:58N 68°06' E 016°21'0 0.0
2018-Feb-19 02:22N 68°06' E 016°21'0 0.0
2018-Feb-19 01:55N 68°06' E 016°21'0 0.0
2018-Feb-19 01:13N 68°06' E 016°21'0 0.0
2018-Feb-19 00:58N 68°06' E 016°21'0 0.0
2018-Feb-19 00:28N 68°06' E 016°21'0 0.0
2018-Feb-18 23:58N 68°06' E 016°21'0 0.0
2018-Feb-18 23:28N 68°06' E 016°21'0 0.0
2018-Feb-18 22:58N 68°06' E 016°21'2 5.2
2018-Feb-18 22:30N 68°06' E 016°15'5 9.6
2018-Feb-18 22:00N 68°03' E 016°05'2 4.7
2018-Feb-18 21:29N 68°04' E 016°10'4 9.2
2018-Feb-18 21:00N 68°06' E 016°21'3 5.1
2018-Feb-18 20:29N 68°06' E 016°14'5 9.7
2018-Feb-18 20:00N 68°03' E 016°05'2 4.9
2018-Feb-18 19:30N 68°04' E 016°10'4 8.5
2018-Feb-18 18:59N 68°06' E 016°21'3 5.8
2018-Feb-18 18:30N 68°06' E 016°14'4 9.0
2018-Feb-18 18:00N 68°03' E 016°05'3 6.2
2018-Feb-18 17:30N 68°05' E 016°11'4 7.7
2018-Feb-18 17:00N 68°06' E 016°21'3 5.4
2018-Feb-18 16:30N 68°06' E 016°14'4 8.8
2018-Feb-18 16:00N 68°03' E 016°05'3 5.4
2018-Feb-18 15:30N 68°05' E 016°10'4 8.4
2018-Feb-18 15:00N 68°06' E 016°21'3 5.5
2018-Feb-18 14:29N 68°06' E 016°14'4 8.4
2018-Feb-18 13:59N 68°03' E 016°05'3 5.5
2018-Feb-18 13:30N 68°05' E 016°10'4 8.6
2018-Feb-18 13:00N 68°06' E 016°21'3 5.2
2018-Feb-18 12:30N 68°06' E 016°14'4 8.9
2018-Feb-18 12:00N 68°03' E 016°05'3 5.2
2018-Feb-18 11:30N 68°05' E 016°10'4 8.6
2018-Feb-18 11:00N 68°06' E 016°21'3 5.1
2018-Feb-18 10:30N 68°06' E 016°14'5 8.7
2018-Feb-18 09:59N 68°03' E 016°05'3 5.5
2018-Feb-18 09:29N 68°05' E 016°11'4 8.4
2018-Feb-18 08:59N 68°06' E 016°21'3 5.6
2018-Feb-18 08:29N 68°06' E 016°14'4 8.8
2018-Feb-18 08:00N 68°03' E 016°05'2 3.8
2018-Feb-18 07:29N 68°04' E 016°09'510.1
2018-Feb-18 07:01N 68°06' E 016°21'1 2.1
2018-Feb-18 06:30N 68°06' E 016°18'5 9.2
2018-Feb-18 06:00N 68°04' E 016°07'2 3.0
2018-Feb-18 05:29N 68°05' E 016°10'4 9.0
2018-Feb-18 05:00N 68°06' E 016°21'0 0.0
2018-Feb-18 04:30N 68°06' E 016°21'0 0.0
2018-Feb-18 04:00N 68°06' E 016°21'0 0.0
2018-Feb-18 03:30N 68°06' E 016°21'0 0.0
2018-Feb-18 03:00N 68°06' E 016°21'0 0.0
2018-Feb-18 02:30N 68°06' E 016°21'0 0.0
2018-Feb-18 02:00N 68°06' E 016°21'0 0.0
2018-Feb-18 01:30N 68°06' E 016°21'0 0.0
2018-Feb-18 01:00N 68°06' E 016°21'0 0.0
2018-Feb-18 00:30N 68°06' E 016°21'0 0.0
2018-Feb-18 00:00N 68°06' E 016°21'0 0.0
2018-Feb-17 23:30N 68°06' E 016°21'0 0.0
2018-Feb-17 23:00N 68°06' E 016°21'3 5.1
2018-Feb-17 22:30N 68°06' E 016°15'5 9.6
2018-Feb-17 22:01N 68°03' E 016°05'2 4.2
2018-Feb-17 21:30N 68°04' E 016°09'5 9.2
2018-Feb-17 21:00N 68°06' E 016°21'2 4.8
2018-Feb-17 20:30N 68°06' E 016°15'5 9.9
2018-Feb-17 20:00N 68°03' E 016°05'2 4.7
2018-Feb-17 19:30N 68°04' E 016°10'4 9.0
2018-Feb-17 19:00N 68°06' E 016°21'3 5.0
2018-Feb-17 18:30N 68°06' E 016°15'5 9.7
2018-Feb-17 18:01N 68°03' E 016°05'2 4.8
2018-Feb-17 17:30N 68°04' E 016°10'4 8.8
2018-Feb-17 17:00N 68°06' E 016°21'3 5.2
2018-Feb-17 16:29N 68°06' E 016°14'4 9.1
2018-Feb-17 16:00N 68°03' E 016°05'3 5.1
2018-Feb-17 15:30N 68°05' E 016°10'4 8.5
2018-Feb-17 15:00N 68°06' E 016°21'3 5.3
2018-Feb-17 14:29N 68°06' E 016°14'4 9.3
2018-Feb-17 14:01N 68°03' E 016°05'3 5.0
2018-Feb-17 13:30N 68°04' E 016°10'4 8.6
2018-Feb-17 13:00N 68°06' E 016°21'3 5.6
2018-Feb-17 12:31N 68°06' E 016°14'4 8.4
2018-Feb-17 12:00N 68°03' E 016°05'3 5.3
2018-Feb-17 11:30N 68°05' E 016°10'4 8.5
2018-Feb-17 11:00N 68°06' E 016°21'3 5.2
2018-Feb-17 10:30N 68°06' E 016°15'5 9.1
2018-Feb-17 10:01N 68°03' E 016°05'3 5.1
2018-Feb-17 09:30N 68°05' E 016°10'4 8.4
2018-Feb-17 09:00N 68°06' E 016°21'3 5.3
2018-Feb-17 08:29N 68°06' E 016°14'4 9.0
2018-Feb-17 08:00N 68°03' E 016°05'2 3.9
2018-Feb-17 07:29N 68°04' E 016°09'5 9.6
2018-Feb-17 06:59N 68°06' E 016°21'1 1.6
2018-Feb-17 06:30N 68°06' E 016°19'5 9.1
2018-Feb-17 06:00N 68°04' E 016°08'0 0.8
2018-Feb-17 05:30N 68°04' E 016°09'5 9.9
2018-Feb-17 05:00N 68°06' E 016°21'0 0.0
2018-Feb-17 04:30N 68°06' E 016°21'0 0.0
2018-Feb-17 04:00N 68°06' E 016°21'0 0.0
2018-Feb-17 03:30N 68°06' E 016°21'0 0.0
2018-Feb-17 03:00N 68°06' E 016°21'0 0.0
2018-Feb-17 02:30N 68°06' E 016°21'0 0.0
2018-Feb-17 02:00N 68°06' E 016°21'0 0.0
2018-Feb-17 01:30N 68°06' E 016°21'0 0.0
2018-Feb-17 01:00N 68°06' E 016°21'0 0.0
2018-Feb-17 00:30N 68°06' E 016°21'0 0.0
2018-Feb-17 00:00N 68°06' E 016°21'0 0.0
2018-Feb-16 23:30N 68°06' E 016°21'0 0.0
2018-Feb-16 23:00N 68°06' E 016°21'2 4.9
2018-Feb-16 22:30N 68°06' E 016°15'5 9.5
2018-Feb-16 22:00N 68°03' E 016°05'2 5.0
2018-Feb-16 21:30N 68°05' E 016°10'4 8.9
2018-Feb-16 21:00N 68°06' E 016°21'2 4.9
2018-Feb-16 20:30N 68°06' E 016°15'5 9.8
2018-Feb-16 20:00N 68°03' E 016°05'3 5.0
2018-Feb-16 19:29N 68°05' E 016°10'4 8.8
2018-Feb-16 19:00N 68°06' E 016°21'2 5.0
2018-Feb-16 18:31N 68°06' E 016°15'5 9.7
2018-Feb-16 18:00N 68°03' E 016°05'2 4.2
2018-Feb-16 17:31N 68°04' E 016°09'5 9.3
2018-Feb-16 16:59N 68°06' E 016°21'3 5.3
2018-Feb-16 16:30N 68°06' E 016°14'5 9.2
2018-Feb-16 16:01N 68°03' E 016°05'2 4.2
2018-Feb-16 15:30N 68°04' E 016°09'5 9.5
2018-Feb-16 15:00N 68°06' E 016°21'2 4.7
2018-Feb-16 14:30N 68°06' E 016°15'5 9.6
2018-Feb-16 14:00N 68°03' E 016°05'2 4.7
2018-Feb-16 13:30N 68°04' E 016°10'4 8.8
2018-Feb-16 13:00N 68°06' E 016°21'2 4.7
2018-Feb-16 12:29N 68°06' E 016°15'510.0
2018-Feb-16 12:00N 68°03' E 016°05'3 5.1
2018-Feb-16 11:29N 68°05' E 016°10'4 8.8
2018-Feb-16 11:00N 68°06' E 016°21'2 4.7
2018-Feb-16 10:30N 68°06' E 016°15'5 9.9
2018-Feb-16 10:00N 68°03' E 016°05'2 4.9
2018-Feb-16 09:30N 68°04' E 016°10'4 8.7
2018-Feb-16 09:00N 68°06' E 016°21'3 5.0
2018-Feb-16 08:29N 68°06' E 016°15'5 9.7
2018-Feb-16 08:00N 68°03' E 016°05'2 3.9
2018-Feb-16 07:29N 68°04' E 016°09'5 9.9
2018-Feb-16 07:00N 68°06' E 016°21'0 0.5
2018-Feb-16 06:30N 68°05' E 016°21'5 9.9
2018-Feb-16 06:01N 68°04' E 016°08'0 0.9
2018-Feb-16 05:30N 68°04' E 016°09'5 7.1
2018-Feb-16 04:49N 68°06' E 016°21'0 0.0
2018-Feb-16 04:28N 68°06' E 016°21'0 0.0
2018-Feb-16 03:58N 68°06' E 016°21'0 0.0
2018-Feb-16 03:28N 68°06' E 016°21'0 0.0
2018-Feb-16 02:55N 68°06' E 016°21'0 0.0
2018-Feb-16 02:25N 68°06' E 016°21'0 0.0
2018-Feb-16 01:58N 68°06' E 016°21'0 0.0
2018-Feb-16 01:28N 68°06' E 016°21'0 0.0
2018-Feb-16 00:58N 68°06' E 016°21'0 0.0
2018-Feb-16 00:28N 68°06' E 016°21'0 0.0
2018-Feb-15 23:58N 68°06' E 016°21'0 0.0
2018-Feb-15 23:28N 68°06' E 016°21'0 0.0
2018-Feb-15 22:58N 68°06' E 016°21'2 5.2
2018-Feb-15 22:30N 68°06' E 016°15'5 9.7
2018-Feb-15 22:00N 68°03' E 016°05'2 4.2
2018-Feb-15 21:30N 68°04' E 016°09'5 9.4
2018-Feb-15 21:00N 68°06' E 016°21'2 4.5
2018-Feb-15 20:28N 68°06' E 016°15'510.3
2018-Feb-15 20:00N 68°03' E 016°05'2 3.9
2018-Feb-15 19:31N 68°04' E 016°09'5 9.8
2018-Feb-15 19:00N 68°06' E 016°21'2 4.1
2018-Feb-15 18:30N 68°06' E 016°16'510.2
2018-Feb-15 18:00N 68°03' E 016°05'2 4.1
2018-Feb-15 17:31N 68°04' E 016°09'5 9.6
2018-Feb-15 17:00N 68°06' E 016°21'3 5.0
2018-Feb-15 16:30N 68°06' E 016°14'5 9.0
2018-Feb-15 15:59N 68°03' E 016°05'2 4.4
2018-Feb-15 15:30N 68°04' E 016°09'5 9.5
2018-Feb-15 15:01N 68°06' E 016°21'2 4.7
2018-Feb-15 14:30N 68°06' E 016°15'5 9.4
2018-Feb-15 14:00N 68°03' E 016°05'2 4.5
2018-Feb-15 13:30N 68°04' E 016°09'5 9.4
2018-Feb-15 13:00N 68°06' E 016°21'3 5.2
2018-Feb-15 12:30N 68°06' E 016°14'  

Dump ship's entire track history